Terminal Aerodrome Forecast
Issued by NWS

Home | Current Version | Previous Version | Text Only | Print | Product List | Glossary On
Versions: 1 2 3 4 5 6 7 8 9 10 11 12 13 14 15 16 17 18 19
000
FTUS44 KLZK 262333
TAFADF
TAF
KADF 262333Z 2700/2724 20005KT 6SM BR OVC006
      TEMPO 2700/2703 2SM -RA BKN003
     FM270300 29010KT 5SM BR OVC012
     FM271000 22006KT P6SM BKN250
      AMD NOT SKED=

USA.gov is the U.S. government's official web portal to all federal, state and local government web resources and services.